createdAt,value
2018-06-10T09:38:58.916Z,25.70
2018-06-10T09:41:27.095Z,26.10
2018-06-10T09:43:55.272Z,26.30
2018-06-10T09:46:23.457Z,26.30
2018-06-10T09:48:51.651Z,26.50
2018-06-10T09:51:21.060Z,26.70
2018-06-10T09:53:49.276Z,26.90
2018-06-10T09:56:17.484Z,27.10
2018-06-10T09:58:45.685Z,27.30
2018-06-10T10:01:13.869Z,27.40
2018-06-10T10:03:42.065Z,27.40
2018-06-10T10:06:10.267Z,27.60
2018-06-10T10:08:38.453Z,27.80
2018-06-10T10:11:06.648Z,28.10
2018-06-10T10:13:34.824Z,27.90
2018-06-10T10:16:03.009Z,27.70
2018-06-10T10:18:31.180Z,27.70
2018-06-10T10:20:59.365Z,27.60
2018-06-10T10:23:27.552Z,27.50
2018-06-10T10:25:55.771Z,27.60
2018-06-10T10:28:23.977Z,27.80
2018-06-10T10:30:52.156Z,28.20
2018-06-10T10:33:20.360Z,28.10
2018-06-10T10:35:48.582Z,27.80
2018-06-10T10:38:16.798Z,27.40
2018-06-10T10:40:44.981Z,27.20
2018-06-10T10:43:13.300Z,27.30
2018-06-10T10:45:41.564Z,27.30
2018-06-10T10:48:09.752Z,27.20
2018-06-10T10:50:37.952Z,27.00
2018-06-10T11:36:47.985Z,27.40
2018-06-10T11:39:16.173Z,26.50
2018-06-10T11:41:44.675Z,26.30
2018-06-10T11:44:12.888Z,26.20
2018-06-10T11:46:41.084Z,26.20
2018-06-10T11:49:09.273Z,26.30
2018-06-10T11:51:37.453Z,26.30
2018-06-10T11:54:06.048Z,26.30
2018-06-10T11:56:34.258Z,26.30
2018-06-10T11:59:02.444Z,26.30
2018-06-10T12:01:30.636Z,26.50
2018-06-10T12:03:58.825Z,26.80
2018-06-10T12:06:27.085Z,26.80
2018-06-10T12:08:55.279Z,26.80
2018-06-10T12:11:23.465Z,26.80
2018-06-10T12:13:51.725Z,26.70
2018-06-10T12:16:19.892Z,26.50
2018-06-10T12:18:48.080Z,26.30
2018-06-10T12:21:16.268Z,26.40
2018-06-10T12:23:44.514Z,26.80
2018-06-10T12:26:12.687Z,27.40
2018-06-10T12:28:40.869Z,27.70
2018-06-10T12:31:09.050Z,28.00
2018-06-10T12:33:37.234Z,27.90
2018-06-10T12:36:05.514Z,27.80
2018-06-10T12:38:33.700Z,27.50
2018-06-10T12:41:01.896Z,27.20
2018-06-10T12:43:30.073Z,27.00
2018-06-10T12:45:58.257Z,26.70
2018-06-10T12:50:54.446Z,26.30
2018-06-10T12:53:22.633Z,26.10
2018-06-10T12:55:50.893Z,25.80
2018-06-10T12:58:19.112Z,25.70
2018-06-10T13:00:47.287Z,25.60
2018-06-10T13:03:15.468Z,25.50
2018-06-10T13:05:43.670Z,25.40
2018-06-10T13:08:11.857Z,25.30
2018-06-10T13:10:40.057Z,25.10
2018-06-10T13:13:08.257Z,25.00
2018-06-10T13:15:36.456Z,24.90
2018-06-10T13:18:04.672Z,24.70
2018-06-10T13:20:32.874Z,24.30
2018-06-10T13:23:01.073Z,24.00
2018-06-10T13:25:29.273Z,23.70
2018-06-10T13:30:25.445Z,24.10
2018-06-10T13:32:53.645Z,24.30
2018-06-10T13:35:21.844Z,24.60
2018-06-10T13:37:50.040Z,24.70
2018-06-10T13:40:18.245Z,25.00
2018-06-10T13:42:46.455Z,25.30
2018-06-10T13:45:14.641Z,25.40
2018-06-10T13:47:42.829Z,25.60
2018-06-10T15:23:05.408Z,25.20
2018-06-10T15:25:33.584Z,25.20
2018-06-10T15:28:01.776Z,25.30
2018-06-10T15:30:29.963Z,25.30
2018-06-10T15:32:58.127Z,25.20
2018-06-10T15:35:26.297Z,25.10
2018-06-10T15:37:54.472Z,25.10
2018-06-10T15:40:22.668Z,25.10
2018-06-10T15:42:50.841Z,25.20
2018-06-10T15:45:19.020Z,25.30
2018-06-10T15:47:47.184Z,25.50
2018-06-10T15:52:43.309Z,25.90
2018-06-10T15:55:11.473Z,26.10
2018-06-10T15:57:39.641Z,26.20
2018-06-10T16:00:07.812Z,26.30
2018-06-10T16:02:35.997Z,26.30
2018-06-10T16:05:04.192Z,26.20
2018-06-10T16:07:32.360Z,26.30
2018-06-10T16:10:00.532Z,26.20
2018-06-10T16:12:28.713Z,26.20
2018-06-10T16:14:56.881Z,26.30
2018-06-10T16:17:25.052Z,26.30
2018-06-10T16:19:53.224Z,26.40
2018-06-10T16:22:21.397Z,26.50
2018-06-10T16:24:49.580Z,26.50
2018-06-10T16:27:17.755Z,26.30
2018-06-10T16:29:45.928Z,26.50
2018-06-10T16:32:14.105Z,26.70
2018-06-10T16:34:42.289Z,26.90
2018-06-10T16:37:10.461Z,27.10
2018-06-10T16:39:38.629Z,27.10
2018-06-10T16:42:06.847Z,27.00
2018-06-10T16:44:35.004Z,26.80
2018-06-10T16:49:31.175Z,26.20
2018-06-10T16:51:59.341Z,26.00
2018-06-10T16:54:27.531Z,25.80
2018-06-10T16:56:55.721Z,25.60
2018-06-10T16:59:23.888Z,25.50
2018-06-10T17:01:52.078Z,25.40
2018-06-10T17:04:20.256Z,25.20
2018-06-10T17:06:48.432Z,25.00
2018-06-10T17:09:16.602Z,24.80
2018-06-10T17:11:44.776Z,24.70
2018-06-10T17:14:12.948Z,24.60
2018-06-10T17:16:41.196Z,24.40
2018-06-10T17:19:09.376Z,24.30
2018-06-10T17:21:37.637Z,24.20
2018-06-10T17:24:05.807Z,24.10
2018-06-10T17:26:33.976Z,24.00
2018-06-10T17:31:30.154Z,23.90
2018-06-10T17:33:58.316Z,23.90
2018-06-10T17:36:26.488Z,24.00
2018-06-10T17:38:54.689Z,24.00
2018-06-10T17:41:22.896Z,24.10
2018-06-10T17:43:51.108Z,24.20
2018-06-10T17:46:19.350Z,24.20
2018-06-10T17:48:47.547Z,24.30
2018-06-10T17:53:43.758Z,24.20
2018-06-10T17:56:11.933Z,24.20
2018-06-10T17:58:40.115Z,24.20
2018-06-10T18:01:08.280Z,24.10
2018-06-10T18:03:36.475Z,24.00
2018-06-10T18:06:04.643Z,23.90
2018-06-10T18:08:32.871Z,23.90
2018-06-10T18:11:01.035Z,23.80
2018-06-10T18:13:29.225Z,23.80
2018-06-10T18:15:57.401Z,23.70
2018-06-10T18:18:25.584Z,23.70
2018-06-10T18:20:53.816Z,23.70
2018-06-10T18:23:22.002Z,23.60
2018-06-10T18:30:46.093Z,23.60
2018-06-10T18:33:14.299Z,23.50
2018-06-10T18:35:42.495Z,23.50
2018-06-10T18:38:10.705Z,23.40
2018-06-10T18:40:38.924Z,23.30
2018-06-10T18:43:07.123Z,23.20
2018-06-10T18:45:35.330Z,23.20
2018-06-10T18:48:03.513Z,23.10
2018-06-10T18:50:31.700Z,23.00
2018-06-10T18:52:59.908Z,22.90
2018-06-10T18:55:28.099Z,22.80
2018-06-10T18:57:56.284Z,22.70
2018-06-10T19:00:24.477Z,22.60
2018-06-10T19:02:52.801Z,22.50
2018-06-10T19:05:20.948Z,22.50
2018-06-10T19:07:49.129Z,22.30
2018-06-10T19:10:17.373Z,22.20
2018-06-10T19:12:45.512Z,22.10
2018-06-10T19:15:13.698Z,22.10
2018-06-10T19:17:41.880Z,21.90
2018-06-10T19:20:10.061Z,21.80
2018-06-10T19:22:38.243Z,21.70
2018-06-10T19:25:06.425Z,21.60
2018-06-10T19:27:34.600Z,21.50
2018-06-10T19:30:02.776Z,21.40
2018-06-10T19:32:30.953Z,21.30
2018-06-10T19:34:59.201Z,21.20
2018-06-10T19:37:27.396Z,21.10
2018-06-10T19:39:55.563Z,21.00
2018-06-10T19:42:23.736Z,21.00
2018-06-10T19:44:51.908Z,20.90
2018-06-10T19:47:20.083Z,20.90
2018-06-10T19:49:48.256Z,20.90
2018-06-10T19:52:16.437Z,20.80
2018-06-10T19:54:44.595Z,20.80
2018-06-10T19:57:12.813Z,20.80
2018-06-10T19:59:41.004Z,20.70
2018-06-10T20:02:09.185Z,20.70
2018-06-10T20:04:37.361Z,20.60
2018-06-10T20:07:05.564Z,20.50
2018-06-10T20:09:33.754Z,20.50
2018-06-10T20:12:01.933Z,20.40
2018-06-10T20:14:30.096Z,20.40
2018-06-10T20:16:58.260Z,20.30
2018-06-10T20:19:26.440Z,20.30
2018-06-10T20:21:54.612Z,20.20
2018-06-10T20:24:22.784Z,20.20
2018-06-10T20:26:50.965Z,20.10
2018-06-10T20:29:19.144Z,20.10
2018-06-10T20:31:47.320Z,20.00
2018-06-10T20:34:15.496Z,20.00
2018-06-10T20:36:43.681Z,19.90
2018-06-10T20:39:11.900Z,19.90
2018-06-10T20:41:40.084Z,19.80
2018-06-10T20:44:08.261Z,19.70
2018-06-10T20:46:36.446Z,19.60
2018-06-10T20:49:04.669Z,19.60
2018-06-10T20:51:32.900Z,19.50
2018-06-10T20:54:01.078Z,19.50
2018-06-10T20:56:29.256Z,19.40
2018-06-10T20:58:57.432Z,19.30
2018-06-10T21:01:25.608Z,19.30
2018-06-10T21:03:53.824Z,19.30
2018-06-10T21:06:22.008Z,19.20
2018-06-10T21:08:50.187Z,19.20
2018-06-10T21:11:18.389Z,19.10
2018-06-10T21:13:46.560Z,19.00
2018-06-10T21:16:14.752Z,19.00
2018-06-10T21:18:42.936Z,18.90
2018-06-10T21:21:11.173Z,18.90
2018-06-10T21:23:39.380Z,18.90
2018-06-10T21:26:07.552Z,18.90
2018-06-10T21:31:03.652Z,18.80
2018-06-10T21:33:31.965Z,18.80
2018-06-10T21:36:00.124Z,18.70
2018-06-10T21:38:28.308Z,18.70
2018-06-10T21:40:56.488Z,18.70
2018-06-10T21:43:24.676Z,18.70
2018-06-10T21:45:52.854Z,18.70
2018-06-10T21:48:21.016Z,18.60
